sensor_id;sensor_type;location;lat;lon;timestamp;P1;durP1;ratioP1;P2;durP2;ratioP2
30287;SDS011;17103;48.316;11.558;2023-04-29T00:01:33;1.95;;;0.20;;
30287;SDS011;17103;48.316;11.558;2023-04-29T00:04:00;2.40;;;0.10;;
30287;SDS011;17103;48.316;11.558;2023-04-29T00:06:25;0.20;;;0.10;;
30287;SDS011;17103;48.316;11.558;2023-04-29T00:08:52;1.67;;;0.20;;
30287;SDS011;17103;48.316;11.558;2023-04-29T00:11:17;0.30;;;0.20;;
30287;SDS011;17103;48.316;11.558;2023-04-29T00:13:43;0.17;;;0.10;;
30287;SDS011;17103;48.316;11.558;2023-04-29T00:16:09;0.57;;;0.17;;
30287;SDS011;17103;48.316;11.558;2023-04-29T00:18:35;0.03;;;0.03;;
30287;SDS011;17103;48.316;11.558;2023-04-29T00:21:01;0.65;;;0.20;;
30287;SDS011;17103;48.316;11.558;2023-04-29T00:23:30;1.13;;;0.20;;
30287;SDS011;17103;48.316;11.558;2023-04-29T00:25:59;2.10;;;0.28;;
30287;SDS011;17103;48.316;11.558;2023-04-29T00:28:24;0.88;;;0.40;;
30287;SDS011;17103;48.316;11.558;2023-04-29T00:30:50;0.65;;;0.20;;
30287;SDS011;17103;48.316;11.558;2023-04-29T00:33:18;0.47;;;0.25;;
30287;SDS011;17103;48.316;11.558;2023-04-29T00:35:44;0.20;;;0.20;;
30287;SDS011;17103;48.316;11.558;2023-04-29T00:38:09;0.80;;;0.28;;
30287;SDS011;17103;48.316;11.558;2023-04-29T00:40:35;0.30;;;0.28;;
30287;SDS011;17103;48.316;11.558;2023-04-29T00:43:01;0.93;;;0.20;;
30287;SDS011;17103;48.316;11.558;2023-04-29T00:45:26;0.75;;;0.20;;
30287;SDS011;17103;48.316;11.558;2023-04-29T00:47:52;0.80;;;0.40;;
30287;SDS011;17103;48.316;11.558;2023-04-29T00:50:18;1.10;;;0.28;;
30287;SDS011;17103;48.316;11.558;2023-04-29T00:52:44;0.38;;;0.20;;
30287;SDS011;17103;48.316;11.558;2023-04-29T00:55:10;0.30;;;0.15;;
30287;SDS011;17103;48.316;11.558;2023-04-29T00:57:37;0.57;;;0.20;;
30287;SDS011;17103;48.316;11.558;2023-04-29T01:00:03;0.38;;;0.17;;
30287;SDS011;17103;48.316;11.558;2023-04-29T01:02:29;4.20;;;0.20;;
30287;SDS011;17103;48.316;11.558;2023-04-29T01:04:55;0.25;;;0.20;;
30287;SDS011;17103;48.316;11.558;2023-04-29T01:10:03;1.02;;;0.20;;
30287;SDS011;17103;48.316;11.558;2023-04-29T01:17:55;0.90;;;0.20;;
30287;SDS011;17103;48.316;11.558;2023-04-29T01:20:19;0.80;;;0.28;;
30287;SDS011;17103;48.316;11.558;2023-04-29T01:22:46;0.32;;;0.20;;
30287;SDS011;17103;48.316;11.558;2023-04-29T01:25:13;0.70;;;0.10;;
30287;SDS011;17103;48.316;11.558;2023-04-29T01:27:47;0.20;;;0.10;;
30287;SDS011;17103;48.316;11.558;2023-04-29T01:30:29;0.93;;;0.20;;
30287;SDS011;17103;48.316;11.558;2023-04-29T01:35:49;0.25;;;0.20;;
30287;SDS011;17103;48.316;11.558;2023-04-29T01:41:26;0.50;;;0.10;;
30287;SDS011;17103;48.316;11.558;2023-04-29T01:44:00;0.50;;;0.20;;
30287;SDS011;17103;48.316;11.558;2023-04-29T01:46:29;0.15;;;0.10;;
30287;SDS011;17103;48.316;11.558;2023-04-29T01:48:55;0.65;;;0.28;;
30287;SDS011;17103;48.316;11.558;2023-04-29T01:51:21;0.30;;;0.10;;
30287;SDS011;17103;48.316;11.558;2023-04-29T01:53:46;0.20;;;0.10;;
30287;SDS011;17103;48.316;11.558;2023-04-29T01:56:12;0.85;;;0.10;;
30287;SDS011;17103;48.316;11.558;2023-04-29T01:58:38;0.85;;;0.22;;
30287;SDS011;17103;48.316;11.558;2023-04-29T02:01:05;1.00;;;0.10;;
30287;SDS011;17103;48.316;11.558;2023-04-29T02:03:31;0.30;;;0.20;;
30287;SDS011;17103;48.316;11.558;2023-04-29T02:05:56;0.40;;;0.20;;
30287;SDS011;17103;48.316;11.558;2023-04-29T02:08:23;0.43;;;0.17;;
30287;SDS011;17103;48.316;11.558;2023-04-29T02:10:52;0.20;;;0.10;;
30287;SDS011;17103;48.316;11.558;2023-04-29T02:13:19;0.50;;;0.28;;
30287;SDS011;17103;48.316;11.558;2023-04-29T02:15:45;0.52;;;0.52;;
30287;SDS011;17103;48.316;11.558;2023-04-29T02:18:10;0.40;;;0.30;;
30287;SDS011;17103;48.316;11.558;2023-04-29T02:20:36;0.75;;;0.30;;
30287;SDS011;17103;48.316;11.558;2023-04-29T02:23:02;0.57;;;0.20;;
30287;SDS011;17103;48.316;11.558;2023-04-29T02:25:27;0.55;;;0.20;;
30287;SDS011;17103;48.316;11.558;2023-04-29T02:27:53;0.65;;;0.30;;
30287;SDS011;17103;48.316;11.558;2023-04-29T02:30:23;0.52;;;0.25;;
30287;SDS011;17103;48.316;11.558;2023-04-29T02:32:49;0.68;;;0.35;;
30287;SDS011;17103;48.316;11.558;2023-04-29T02:35:24;0.50;;;0.40;;
30287;SDS011;17103;48.316;11.558;2023-04-29T02:37:56;0.57;;;0.30;;
30287;SDS011;17103;48.316;11.558;2023-04-29T02:40:57;0.20;;;0.20;;
30287;SDS011;17103;48.316;11.558;2023-04-29T02:43:23;0.55;;;0.35;;
30287;SDS011;17103;48.316;11.558;2023-04-29T02:45:48;0.50;;;0.25;;
30287;SDS011;17103;48.316;11.558;2023-04-29T02:48:14;0.22;;;0.10;;
30287;SDS011;17103;48.316;11.558;2023-04-29T02:50:40;0.30;;;0.20;;
30287;SDS011;17103;48.316;11.558;2023-04-29T02:53:05;1.25;;;0.25;;
30287;SDS011;17103;48.316;11.558;2023-04-29T02:55:31;1.30;;;0.30;;
30287;SDS011;17103;48.316;11.558;2023-04-29T02:57:57;0.57;;;0.30;;
30287;SDS011;17103;48.316;11.558;2023-04-29T03:00:22;0.60;;;0.25;;
30287;SDS011;17103;48.316;11.558;2023-04-29T03:02:48;0.45;;;0.30;;
30287;SDS011;17103;48.316;11.558;2023-04-29T03:05:14;0.40;;;0.30;;
30287;SDS011;17103;48.316;11.558;2023-04-29T03:07:39;0.55;;;0.30;;
30287;SDS011;17103;48.316;11.558;2023-04-29T03:10:05;2.42;;;0.45;;
30287;SDS011;17103;48.316;11.558;2023-04-29T03:12:31;1.35;;;0.30;;
30287;SDS011;17103;48.316;11.558;2023-04-29T03:14:57;0.30;;;0.30;;
30287;SDS011;17103;48.316;11.558;2023-04-29T03:17:23;0.80;;;0.40;;
30287;SDS011;17103;48.316;11.558;2023-04-29T03:19:49;2.05;;;0.40;;
30287;SDS011;17103;48.316;11.558;2023-04-29T03:22:17;0.52;;;0.40;;
30287;SDS011;17103;48.316;11.558;2023-04-29T03:24:42;0.82;;;0.40;;
30287;SDS011;17103;48.316;11.558;2023-04-29T03:27:08;0.50;;;0.40;;
30287;SDS011;17103;48.316;11.558;2023-04-29T03:29:35;0.68;;;0.50;;
30287;SDS011;17103;48.316;11.558;2023-04-29T03:32:00;0.38;;;0.30;;
30287;SDS011;17103;48.316;11.558;2023-04-29T03:34:26;0.50;;;0.40;;
30287;SDS011;17103;48.316;11.558;2023-04-29T03:36:54;0.70;;;0.50;;
30287;SDS011;17103;48.316;11.558;2023-04-29T03:39:22;1.02;;;0.50;;
30287;SDS011;17103;48.316;11.558;2023-04-29T03:41:48;0.82;;;0.50;;
30287;SDS011;17103;48.316;11.558;2023-04-29T03:44:13;2.72;;;0.60;;
30287;SDS011;17103;48.316;11.558;2023-04-29T03:46:39;1.27;;;0.95;;
30287;SDS011;17103;48.316;11.558;2023-04-29T03:49:08;0.68;;;0.50;;
30287;SDS011;17103;48.316;11.558;2023-04-29T03:51:52;0.88;;;0.52;;
30287;SDS011;17103;48.316;11.558;2023-04-29T03:54:20;1.20;;;0.43;;
30287;SDS011;17103;48.316;11.558;2023-04-29T03:56:46;0.50;;;0.40;;
30287;SDS011;17103;48.316;11.558;2023-04-29T03:59:12;1.35;;;0.63;;
30287;SDS011;17103;48.316;11.558;2023-04-29T04:01:38;1.10;;;0.50;;
30287;SDS011;17103;48.316;11.558;2023-04-29T04:04:03;1.08;;;0.60;;
30287;SDS011;17103;48.316;11.558;2023-04-29T04:06:29;0.80;;;0.50;;
30287;SDS011;17103;48.316;11.558;2023-04-29T04:08:55;0.65;;;0.40;;
30287;SDS011;17103;48.316;11.558;2023-04-29T04:11:21;1.13;;;0.47;;
30287;SDS011;17103;48.316;11.558;2023-04-29T04:13:48;0.75;;;0.57;;
30287;SDS011;17103;48.316;11.558;2023-04-29T04:16:14;1.60;;;1.15;;
30287;SDS011;17103;48.316;11.558;2023-04-29T04:18:42;2.95;;;0.70;;
30287;SDS011;17103;48.316;11.558;2023-04-29T04:21:08;1.02;;;0.52;;
30287;SDS011;17103;48.316;11.558;2023-04-29T04:23:35;1.25;;;0.50;;
30287;SDS011;17103;48.316;11.558;2023-04-29T04:26:04;1.05;;;0.60;;
30287;SDS011;17103;48.316;11.558;2023-04-29T04:28:30;0.95;;;0.40;;
30287;SDS011;17103;48.316;11.558;2023-04-29T04:30:56;1.10;;;0.70;;
30287;SDS011;17103;48.316;11.558;2023-04-29T04:33:24;0.93;;;0.60;;
30287;SDS011;17103;48.316;11.558;2023-04-29T04:35:51;0.68;;;0.47;;
30287;SDS011;17103;48.316;11.558;2023-04-29T04:38:16;0.70;;;0.50;;
30287;SDS011;17103;48.316;11.558;2023-04-29T04:40:42;0.73;;;0.55;;
30287;SDS011;17103;48.316;11.558;2023-04-29T04:43:08;2.40;;;1.10;;
30287;SDS011;17103;48.316;11.558;2023-04-29T04:45:34;1.27;;;0.60;;
30287;SDS011;17103;48.316;11.558;2023-04-29T04:48:00;1.75;;;1.23;;
30287;SDS011;17103;48.316;11.558;2023-04-29T04:50:27;0.95;;;0.70;;
30287;SDS011;17103;48.316;11.558;2023-04-29T04:52:56;1.33;;;0.75;;
30287;SDS011;17103;48.316;11.558;2023-04-29T04:55:22;0.65;;;0.55;;
30287;SDS011;17103;48.316;11.558;2023-04-29T04:57:49;4.28;;;0.73;;
30287;SDS011;17103;48.316;11.558;2023-04-29T05:00:15;1.85;;;1.35;;
30287;SDS011;17103;48.316;11.558;2023-04-29T05:02:43;2.55;;;0.88;;
30287;SDS011;17103;48.316;11.558;2023-04-29T05:05:08;0.95;;;0.55;;
30287;SDS011;17103;48.316;11.558;2023-04-29T05:07:34;2.22;;;0.90;;
30287;SDS011;17103;48.316;11.558;2023-04-29T05:10:04;0.60;;;0.60;;
30287;SDS011;17103;48.316;11.558;2023-04-29T05:12:30;1.55;;;0.70;;
30287;SDS011;17103;48.316;11.558;2023-04-29T05:14:56;0.60;;;0.50;;
30287;SDS011;17103;48.316;11.558;2023-04-29T05:17:22;1.20;;;0.80;;
30287;SDS011;17103;48.316;11.558;2023-04-29T05:19:48;2.05;;;0.57;;
30287;SDS011;17103;48.316;11.558;2023-04-29T05:22:14;1.13;;;0.82;;
30287;SDS011;17103;48.316;11.558;2023-04-29T05:24:39;1.67;;;0.95;;
30287;SDS011;17103;48.316;11.558;2023-04-29T05:27:05;0.85;;;0.63;;
30287;SDS011;17103;48.316;11.558;2023-04-29T05:29:31;2.65;;;0.47;;
30287;SDS011;17103;48.316;11.558;2023-04-29T05:31:56;1.48;;;0.77;;
30287;SDS011;17103;48.316;11.558;2023-04-29T05:34:24;1.95;;;0.50;;
30287;SDS011;17103;48.316;11.558;2023-04-29T05:36:50;0.95;;;0.63;;
30287;SDS011;17103;48.316;11.558;2023-04-29T05:39:16;0.63;;;0.50;;
30287;SDS011;17103;48.316;11.558;2023-04-29T05:41:42;1.23;;;0.68;;
30287;SDS011;17103;48.316;11.558;2023-04-29T05:44:07;4.30;;;1.20;;
30287;SDS011;17103;48.316;11.558;2023-04-29T05:46:33;3.00;;;1.95;;
30287;SDS011;17103;48.316;11.558;2023-04-29T05:48:59;3.35;;;1.15;;
30287;SDS011;17103;48.316;11.558;2023-04-29T05:51:25;1.55;;;1.33;;
30287;SDS011;17103;48.316;11.558;2023-04-29T05:53:52;2.45;;;1.15;;
30287;SDS011;17103;48.316;11.558;2023-04-29T05:56:18;1.35;;;1.25;;
30287;SDS011;17103;48.316;11.558;2023-04-29T05:58:44;1.98;;;1.50;;
30287;SDS011;17103;48.316;11.558;2023-04-29T06:01:10;2.30;;;1.48;;
30287;SDS011;17103;48.316;11.558;2023-04-29T06:03:36;3.05;;;2.47;;
30287;SDS011;17103;48.316;11.558;2023-04-29T06:06:02;3.17;;;2.38;;
30287;SDS011;17103;48.316;11.558;2023-04-29T06:08:28;2.47;;;1.55;;
30287;SDS011;17103;48.316;11.558;2023-04-29T06:10:54;3.55;;;2.75;;
30287;SDS011;17103;48.316;11.558;2023-04-29T06:13:20;4.72;;;3.35;;
30287;SDS011;17103;48.316;11.558;2023-04-29T06:15:46;2.97;;;2.33;;
30287;SDS011;17103;48.316;11.558;2023-04-29T06:18:11;3.78;;;3.20;;
30287;SDS011;17103;48.316;11.558;2023-04-29T06:20:37;5.25;;;2.88;;
30287;SDS011;17103;48.316;11.558;2023-04-29T06:23:03;5.28;;;4.13;;
30287;SDS011;17103;48.316;11.558;2023-04-29T06:25:29;4.00;;;3.58;;
30287;SDS011;17103;48.316;11.558;2023-04-29T06:27:56;3.88;;;3.33;;
30287;SDS011;17103;48.316;11.558;2023-04-29T06:30:22;4.53;;;3.85;;
30287;SDS011;17103;48.316;11.558;2023-04-29T06:32:48;4.22;;;3.63;;
30287;SDS011;17103;48.316;11.558;2023-04-29T06:35:14;5.15;;;3.47;;
30287;SDS011;17103;48.316;11.558;2023-04-29T06:37:40;4.30;;;3.85;;
30287;SDS011;17103;48.316;11.558;2023-04-29T06:40:06;6.13;;;4.93;;
30287;SDS011;17103;48.316;11.558;2023-04-29T06:42:32;10.30;;;6.88;;
30287;SDS011;17103;48.316;11.558;2023-04-29T06:44:57;7.10;;;4.93;;
30287;SDS011;17103;48.316;11.558;2023-04-29T06:47:23;8.60;;;6.22;;
30287;SDS011;17103;48.316;11.558;2023-04-29T06:49:50;6.22;;;5.10;;
30287;SDS011;17103;48.316;11.558;2023-04-29T06:52:17;7.97;;;5.70;;
30287;SDS011;17103;48.316;11.558;2023-04-29T06:54:43;7.75;;;5.40;;
30287;SDS011;17103;48.316;11.558;2023-04-29T06:57:09;6.80;;;4.88;;
30287;SDS011;17103;48.316;11.558;2023-04-29T06:59:35;10.25;;;6.88;;
30287;SDS011;17103;48.316;11.558;2023-04-29T07:02:01;10.48;;;6.93;;
30287;SDS011;17103;48.316;11.558;2023-04-29T07:04:26;6.18;;;5.00;;
30287;SDS011;17103;48.316;11.558;2023-04-29T07:06:52;10.27;;;5.93;;
30287;SDS011;17103;48.316;11.558;2023-04-29T07:09:18;4.95;;;4.45;;
30287;SDS011;17103;48.316;11.558;2023-04-29T07:11:44;6.55;;;3.83;;
30287;SDS011;17103;48.316;11.558;2023-04-29T07:14:10;4.20;;;3.78;;
30287;SDS011;17103;48.316;11.558;2023-04-29T07:16:35;4.43;;;3.63;;
30287;SDS011;17103;48.316;11.558;2023-04-29T07:19:01;5.05;;;3.90;;
30287;SDS011;17103;48.316;11.558;2023-04-29T07:21:27;4.28;;;3.40;;
30287;SDS011;17103;48.316;11.558;2023-04-29T07:23:56;5.03;;;3.40;;
30287;SDS011;17103;48.316;11.558;2023-04-29T07:26:24;7.18;;;3.63;;
30287;SDS011;17103;48.316;11.558;2023-04-29T07:28:51;4.97;;;3.70;;
30287;SDS011;17103;48.316;11.558;2023-04-29T07:31:20;4.43;;;3.30;;
30287;SDS011;17103;48.316;11.558;2023-04-29T07:33:46;6.32;;;4.05;;
30287;SDS011;17103;48.316;11.558;2023-04-29T07:36:12;5.47;;;3.15;;
30287;SDS011;17103;48.316;11.558;2023-04-29T07:38:39;5.03;;;3.40;;
30287;SDS011;17103;48.316;11.558;2023-04-29T07:41:05;4.00;;;3.05;;
30287;SDS011;17103;48.316;11.558;2023-04-29T07:43:31;3.72;;;2.60;;
30287;SDS011;17103;48.316;11.558;2023-04-29T07:45:57;4.03;;;2.53;;
30287;SDS011;17103;48.316;11.558;2023-04-29T07:48:22;4.93;;;3.80;;
30287;SDS011;17103;48.316;11.558;2023-04-29T07:50:48;4.13;;;2.67;;
30287;SDS011;17103;48.316;11.558;2023-04-29T07:53:13;3.05;;;2.65;;
30287;SDS011;17103;48.316;11.558;2023-04-29T07:55:40;2.83;;;2.60;;
30287;SDS011;17103;48.316;11.558;2023-04-29T07:58:06;2.53;;;2.13;;
30287;SDS011;17103;48.316;11.558;2023-04-29T08:00:31;2.75;;;2.13;;
30287;SDS011;17103;48.316;11.558;2023-04-29T08:02:57;2.00;;;1.77;;
30287;SDS011;17103;48.316;11.558;2023-04-29T08:05:23;2.40;;;2.03;;
30287;SDS011;17103;48.316;11.558;2023-04-29T08:07:49;2.10;;;1.60;;
30287;SDS011;17103;48.316;11.558;2023-04-29T08:10:15;2.85;;;2.20;;
30287;SDS011;17103;48.316;11.558;2023-04-29T08:12:45;2.65;;;2.22;;
30287;SDS011;17103;48.316;11.558;2023-04-29T08:15:11;2.88;;;2.40;;
30287;SDS011;17103;48.316;11.558;2023-04-29T08:17:37;2.17;;;1.52;;
30287;SDS011;17103;48.316;11.558;2023-04-29T08:20:02;2.78;;;2.33;;
30287;SDS011;17103;48.316;11.558;2023-04-29T08:22:29;2.67;;;1.90;;
30287;SDS011;17103;48.316;11.558;2023-04-29T08:24:55;2.45;;;1.73;;
30287;SDS011;17103;48.316;11.558;2023-04-29T08:27:21;2.63;;;1.98;;
30287;SDS011;17103;48.316;11.558;2023-04-29T08:29:49;2.10;;;1.80;;
30287;SDS011;17103;48.316;11.558;2023-04-29T08:32:16;1.88;;;1.70;;
30287;SDS011;17103;48.316;11.558;2023-04-29T08:34:42;1.60;;;1.50;;
30287;SDS011;17103;48.316;11.558;2023-04-29T08:37:10;2.67;;;1.67;;
30287;SDS011;17103;48.316;11.558;2023-04-29T08:39:38;2.65;;;1.35;;
30287;SDS011;17103;48.316;11.558;2023-04-29T08:42:10;2.47;;;2.05;;
30287;SDS011;17103;48.316;11.558;2023-04-29T08:44:45;2.88;;;1.83;;
30287;SDS011;17103;48.316;11.558;2023-04-29T08:47:11;4.53;;;2.05;;
30287;SDS011;17103;48.316;11.558;2023-04-29T08:49:39;2.60;;;1.90;;
30287;SDS011;17103;48.316;11.558;2023-04-29T08:52:06;3.92;;;1.67;;
30287;SDS011;17103;48.316;11.558;2023-04-29T08:54:35;1.88;;;1.60;;
30287;SDS011;17103;48.316;11.558;2023-04-29T08:57:06;3.35;;;1.63;;
30287;SDS011;17103;48.316;11.558;2023-04-29T08:59:50;1.73;;;1.27;;
30287;SDS011;17103;48.316;11.558;2023-04-29T09:02:24;2.05;;;1.35;;
30287;SDS011;17103;48.316;11.558;2023-04-29T09:04:59;1.90;;;1.52;;
30287;SDS011;17103;48.316;11.558;2023-04-29T09:22:48;3.47;;;1.25;;
30287;SDS011;17103;48.316;11.558;2023-04-29T09:25:18;1.40;;;1.30;;
30287;SDS011;17103;48.316;11.558;2023-04-29T09:27:45;2.60;;;1.73;;
30287;SDS011;17103;48.316;11.558;2023-04-29T09:30:11;4.28;;;1.50;;
30287;SDS011;17103;48.316;11.558;2023-04-29T09:32:38;2.85;;;1.75;;
30287;SDS011;17103;48.316;11.558;2023-04-29T09:37:49;2.25;;;1.80;;
30287;SDS011;17103;48.316;11.558;2023-04-29T09:40:30;1.77;;;1.20;;
30287;SDS011;17103;48.316;11.558;2023-04-29T09:42:57;1.63;;;1.10;;
30287;SDS011;17103;48.316;11.558;2023-04-29T09:45:36;1.50;;;1.30;;
30287;SDS011;17103;48.316;11.558;2023-04-29T09:48:03;1.00;;;0.90;;
30287;SDS011;17103;48.316;11.558;2023-04-29T09:50:36;1.67;;;1.20;;
30287;SDS011;17103;48.316;11.558;2023-04-29T09:53:05;1.73;;;1.20;;
30287;SDS011;17103;48.316;11.558;2023-04-29T09:58:29;1.25;;;0.82;;
30287;SDS011;17103;48.316;11.558;2023-04-29T10:00:59;1.65;;;1.17;;
30287;SDS011;17103;48.316;11.558;2023-04-29T10:03:28;2.25;;;1.08;;
30287;SDS011;17103;48.316;11.558;2023-04-29T10:05:59;2.83;;;1.38;;
30287;SDS011;17103;48.316;11.558;2023-04-29T10:11:27;3.17;;;1.30;;
30287;SDS011;17103;48.316;11.558;2023-04-29T10:20:21;2.25;;;1.10;;
30287;SDS011;17103;48.316;11.558;2023-04-29T10:22:51;1.55;;;1.27;;
30287;SDS011;17103;48.316;11.558;2023-04-29T10:25:23;1.45;;;1.02;;
30287;SDS011;17103;48.316;11.558;2023-04-29T10:27:52;1.90;;;0.90;;
30287;SDS011;17103;48.316;11.558;2023-04-29T10:30:20;1.42;;;0.90;;
30287;SDS011;17103;48.316;11.558;2023-04-29T10:32:47;1.40;;;0.80;;
30287;SDS011;17103;48.316;11.558;2023-04-29T10:35:14;1.17;;;0.80;;
30287;SDS011;17103;48.316;11.558;2023-04-29T10:37:42;2.67;;;0.68;;
30287;SDS011;17103;48.316;11.558;2023-04-29T10:40:18;2.50;;;0.70;;
30287;SDS011;17103;48.316;11.558;2023-04-29T10:42:47;1.15;;;0.93;;
30287;SDS011;17103;48.316;11.558;2023-04-29T10:45:18;1.25;;;0.60;;
30287;SDS011;17103;48.316;11.558;2023-04-29T10:50:30;3.60;;;0.70;;
30287;SDS011;17103;48.316;11.558;2023-04-29T10:53:00;1.08;;;0.50;;
30287;SDS011;17103;48.316;11.558;2023-04-29T10:55:27;0.98;;;0.50;;
30287;SDS011;17103;48.316;11.558;2023-04-29T10:57:56;2.10;;;0.60;;
30287;SDS011;17103;48.316;11.558;2023-04-29T11:00:25;0.20;;;0.20;;
30287;SDS011;17103;48.316;11.558;2023-04-29T11:02:52;0.73;;;0.50;;
30287;SDS011;17103;48.316;11.558;2023-04-29T11:05:28;1.25;;;0.50;;
30287;SDS011;17103;48.316;11.558;2023-04-29T11:08:09;1.77;;;0.45;;
30287;SDS011;17103;48.316;11.558;2023-04-29T11:10:43;0.52;;;0.40;;
30287;SDS011;17103;48.316;11.558;2023-04-29T11:15:52;1.20;;;0.50;;
30287;SDS011;17103;48.316;11.558;2023-04-29T11:18:18;0.68;;;0.45;;
30287;SDS011;17103;48.316;11.558;2023-04-29T11:23:39;2.03;;;0.55;;
30287;SDS011;17103;48.316;11.558;2023-04-29T11:26:06;1.70;;;0.30;;
30287;SDS011;17103;48.316;11.558;2023-04-29T11:28:35;2.28;;;0.70;;
30287;SDS011;17103;48.316;11.558;2023-04-29T11:31:01;2.10;;;0.50;;
30287;SDS011;17103;48.316;11.558;2023-04-29T11:33:30;1.33;;;0.60;;
30287;SDS011;17103;48.316;11.558;2023-04-29T11:35:57;1.10;;;0.52;;
30287;SDS011;17103;48.316;11.558;2023-04-29T11:38:27;1.48;;;0.40;;
30287;SDS011;17103;48.316;11.558;2023-04-29T11:40:54;0.98;;;0.52;;
30287;SDS011;17103;48.316;11.558;2023-04-29T11:43:21;0.45;;;0.32;;
30287;SDS011;17103;48.316;11.558;2023-04-29T11:45:48;0.77;;;0.50;;
30287;SDS011;17103;48.316;11.558;2023-04-29T11:48:17;1.00;;;0.40;;
30287;SDS011;17103;48.316;11.558;2023-04-29T11:50:44;1.00;;;0.47;;
30287;SDS011;17103;48.316;11.558;2023-04-29T11:53:19;0.87;;;0.50;;
30287;SDS011;17103;48.316;11.558;2023-04-29T11:55:46;2.13;;;0.90;;
30287;SDS011;17103;48.316;11.558;2023-04-29T11:58:13;0.80;;;0.60;;
30287;SDS011;17103;48.316;11.558;2023-04-29T12:00:42;1.85;;;0.40;;
30287;SDS011;17103;48.316;11.558;2023-04-29T12:03:12;1.02;;;0.65;;
30287;SDS011;17103;48.316;11.558;2023-04-29T12:05:45;0.80;;;0.60;;
30287;SDS011;17103;48.316;11.558;2023-04-29T12:11:31;0.68;;;0.35;;
30287;SDS011;17103;48.316;11.558;2023-04-29T12:14:00;0.50;;;0.40;;
30287;SDS011;17103;48.316;11.558;2023-04-29T12:16:36;0.73;;;0.40;;
30287;SDS011;17103;48.316;11.558;2023-04-29T12:22:30;1.55;;;0.57;;
30287;SDS011;17103;48.316;11.558;2023-04-29T12:24:56;0.38;;;0.30;;
30287;SDS011;17103;48.316;11.558;2023-04-29T12:27:22;0.68;;;0.40;;
30287;SDS011;17103;48.316;11.558;2023-04-29T12:29:48;1.92;;;0.50;;
30287;SDS011;17103;48.316;11.558;2023-04-29T12:32:17;0.68;;;0.40;;
30287;SDS011;17103;48.316;11.558;2023-04-29T12:34:46;0.57;;;0.40;;
30287;SDS011;17103;48.316;11.558;2023-04-29T12:37:12;0.40;;;0.40;;
30287;SDS011;17103;48.316;11.558;2023-04-29T12:39:39;0.43;;;0.20;;
30287;SDS011;17103;48.316;11.558;2023-04-29T12:42:05;0.43;;;0.20;;
30287;SDS011;17103;48.316;11.558;2023-04-29T12:47:10;0.28;;;0.20;;
30287;SDS011;17103;48.316;11.558;2023-04-29T12:52:06;1.40;;;0.30;;
30287;SDS011;17103;48.316;11.558;2023-04-29T12:54:35;0.77;;;0.40;;
30287;SDS011;17103;48.316;11.558;2023-04-29T12:57:01;1.40;;;0.40;;
30287;SDS011;17103;48.316;11.558;2023-04-29T12:59:29;0.30;;;0.30;;
30287;SDS011;17103;48.316;11.558;2023-04-29T13:01:54;0.68;;;0.40;;
30287;SDS011;17103;48.316;11.558;2023-04-29T13:04:29;1.90;;;0.30;;
30287;SDS011;17103;48.316;11.558;2023-04-29T13:06:56;0.50;;;0.40;;
30287;SDS011;17103;48.316;11.558;2023-04-29T13:09:27;0.50;;;0.30;;
30287;SDS011;17103;48.316;11.558;2023-04-29T13:11:55;0.57;;;0.47;;
30287;SDS011;17103;48.316;11.558;2023-04-29T13:14:21;0.32;;;0.20;;
30287;SDS011;17103;48.316;11.558;2023-04-29T13:16:47;1.60;;;0.93;;
30287;SDS011;17103;48.316;11.558;2023-04-29T13:19:13;0.80;;;0.30;;
30287;SDS011;17103;48.316;11.558;2023-04-29T13:21:54;0.70;;;0.30;;
30287;SDS011;17103;48.316;11.558;2023-04-29T13:24:20;1.60;;;0.47;;
30287;SDS011;17103;48.316;11.558;2023-04-29T13:26:45;0.75;;;0.70;;
30287;SDS011;17103;48.316;11.558;2023-04-29T13:29:12;0.95;;;0.60;;
30287;SDS011;17103;48.316;11.558;2023-04-29T13:31:39;1.20;;;0.70;;
30287;SDS011;17103;48.316;11.558;2023-04-29T13:34:08;1.67;;;0.95;;
30287;SDS011;17103;48.316;11.558;2023-04-29T13:36:34;1.05;;;0.30;;
30287;SDS011;17103;48.316;11.558;2023-04-29T13:39:00;1.30;;;0.55;;
30287;SDS011;17103;48.316;11.558;2023-04-29T13:41:26;0.90;;;0.57;;
30287;SDS011;17103;48.316;11.558;2023-04-29T13:43:53;0.77;;;0.50;;
30287;SDS011;17103;48.316;11.558;2023-04-29T13:46:19;0.73;;;0.45;;
30287;SDS011;17103;48.316;11.558;2023-04-29T13:48:46;1.20;;;0.55;;
30287;SDS011;17103;48.316;11.558;2023-04-29T13:51:26;0.73;;;0.60;;
30287;SDS011;17103;48.316;11.558;2023-04-29T13:53:55;3.08;;;0.63;;
30287;SDS011;17103;48.316;11.558;2023-04-29T13:56:21;0.57;;;0.47;;
30287;SDS011;17103;48.316;11.558;2023-04-29T13:58:58;0.50;;;0.30;;
30287;SDS011;17103;48.316;11.558;2023-04-29T14:08:46;0.70;;;0.40;;
30287;SDS011;17103;48.316;11.558;2023-04-29T14:15:13;0.95;;;0.30;;
30287;SDS011;17103;48.316;11.558;2023-04-29T14:17:40;2.33;;;0.55;;
30287;SDS011;17103;48.316;11.558;2023-04-29T14:20:13;1.15;;;0.30;;
30287;SDS011;17103;48.316;11.558;2023-04-29T14:29:10;1.83;;;0.83;;
30287;SDS011;17103;48.316;11.558;2023-04-29T14:32:07;1.35;;;0.60;;
30287;SDS011;17103;48.316;11.558;2023-04-29T14:34:33;0.50;;;0.40;;
30287;SDS011;17103;48.316;11.558;2023-04-29T14:37:00;0.40;;;0.40;;
30287;SDS011;17103;48.316;11.558;2023-04-29T14:39:26;0.40;;;0.30;;
30287;SDS011;17103;48.316;11.558;2023-04-29T14:41:52;0.70;;;0.35;;
30287;SDS011;17103;48.316;11.558;2023-04-29T14:44:18;0.60;;;0.50;;
30287;SDS011;17103;48.316;11.558;2023-04-29T14:46:45;0.73;;;0.40;;
30287;SDS011;17103;48.316;11.558;2023-04-29T14:49:11;0.52;;;0.40;;
30287;SDS011;17103;48.316;11.558;2023-04-29T14:51:37;0.73;;;0.50;;
30287;SDS011;17103;48.316;11.558;2023-04-29T14:54:02;0.55;;;0.40;;
30287;SDS011;17103;48.316;11.558;2023-04-29T14:56:28;0.50;;;0.45;;
30287;SDS011;17103;48.316;11.558;2023-04-29T14:58:54;0.88;;;0.50;;
30287;SDS011;17103;48.316;11.558;2023-04-29T15:01:20;0.40;;;0.40;;
30287;SDS011;17103;48.316;11.558;2023-04-29T15:03:46;0.88;;;0.40;;
30287;SDS011;17103;48.316;11.558;2023-04-29T15:06:22;0.50;;;0.30;;
30287;SDS011;17103;48.316;11.558;2023-04-29T15:09:05;0.93;;;0.73;;
30287;SDS011;17103;48.316;11.558;2023-04-29T15:11:45;0.60;;;0.40;;
30287;SDS011;17103;48.316;11.558;2023-04-29T15:14:18;1.08;;;0.73;;
30287;SDS011;17103;48.316;11.558;2023-04-29T15:16:44;0.73;;;0.55;;
30287;SDS011;17103;48.316;11.558;2023-04-29T15:19:10;0.80;;;0.73;;
30287;SDS011;17103;48.316;11.558;2023-04-29T15:21:36;1.13;;;0.63;;
30287;SDS011;17103;48.316;11.558;2023-04-29T15:24:02;2.67;;;0.50;;
30287;SDS011;17103;48.316;11.558;2023-04-29T15:26:28;0.85;;;0.60;;
30287;SDS011;17103;48.316;11.558;2023-04-29T15:28:54;1.40;;;0.75;;
30287;SDS011;17103;48.316;11.558;2023-04-29T15:31:20;0.57;;;0.47;;
30287;SDS011;17103;48.316;11.558;2023-04-29T15:33:45;1.30;;;0.70;;
30287;SDS011;17103;48.316;11.558;2023-04-29T15:36:12;0.88;;;0.70;;
30287;SDS011;17103;48.316;11.558;2023-04-29T15:38:39;0.73;;;0.50;;
30287;SDS011;17103;48.316;11.558;2023-04-29T15:41:06;0.63;;;0.50;;
30287;SDS011;17103;48.316;11.558;2023-04-29T15:43:32;0.63;;;0.60;;
30287;SDS011;17103;48.316;11.558;2023-04-29T15:45:58;1.55;;;0.60;;
30287;SDS011;17103;48.316;11.558;2023-04-29T15:48:54;2.35;;;0.70;;
30287;SDS011;17103;48.316;11.558;2023-04-29T15:51:30;0.80;;;0.70;;
30287;SDS011;17103;48.316;11.558;2023-04-29T15:53:56;0.88;;;0.77;;
30287;SDS011;17103;48.316;11.558;2023-04-29T15:56:22;1.00;;;0.90;;
30287;SDS011;17103;48.316;11.558;2023-04-29T15:58:49;1.13;;;0.65;;